sensor_id;sensor_type;location;lat;lon;timestamp;pressure;altitude;pressure_sealevel;temperature
18713;BMP280;9485;49.386;8.674;2022-07-22T00:03:55;100756.09;;;23.56
18713;BMP280;9485;49.386;8.674;2022-07-22T00:09:17;100757.44;;;23.48
18713;BMP280;9485;49.386;8.674;2022-07-22T00:14:38;100761.84;;;23.41
18713;BMP280;9485;49.386;8.674;2022-07-22T00:19:58;100761.28;;;23.35
18713;BMP280;9485;49.386;8.674;2022-07-22T00:25:20;100745.53;;;23.29
18713;BMP280;9485;49.386;8.674;2022-07-22T00:30:41;100748.63;;;23.23
18713;BMP280;9485;49.386;8.674;2022-07-22T00:36:02;100759.53;;;23.17
18713;BMP280;9485;49.386;8.674;2022-07-22T00:41:25;100754.16;;;23.14
18713;BMP280;9485;49.386;8.674;2022-07-22T00:46:46;100760.91;;;23.09
18713;BMP280;9485;49.386;8.674;2022-07-22T00:52:07;100765.09;;;23.00
18713;BMP280;9485;49.386;8.674;2022-07-22T00:57:30;100763.72;;;22.94
18713;BMP280;9485;49.386;8.674;2022-07-22T01:02:50;100767.19;;;22.85
18713;BMP280;9485;49.386;8.674;2022-07-22T01:08:11;100757.19;;;22.71
18713;BMP280;9485;49.386;8.674;2022-07-22T01:13:33;100767.53;;;22.67
18713;BMP280;9485;49.386;8.674;2022-07-22T01:18:54;100766.94;;;22.61
18713;BMP280;9485;49.386;8.674;2022-07-22T01:24:16;100764.25;;;22.55
18713;BMP280;9485;49.386;8.674;2022-07-22T01:29:36;100757.69;;;22.47
18713;BMP280;9485;49.386;8.674;2022-07-22T01:34:57;100753.81;;;22.37
18713;BMP280;9485;49.386;8.674;2022-07-22T01:40:20;100753.56;;;22.28
18713;BMP280;9485;49.386;8.674;2022-07-22T01:45:40;100755.63;;;22.20
18713;BMP280;9485;49.386;8.674;2022-07-22T01:51:01;100760.78;;;22.14
18713;BMP280;9485;49.386;8.674;2022-07-22T01:56:23;100764.41;;;22.07
18713;BMP280;9485;49.386;8.674;2022-07-22T02:01:43;100759.38;;;22.00
18713;BMP280;9485;49.386;8.674;2022-07-22T02:07:04;100755.53;;;21.97
18713;BMP280;9485;49.386;8.674;2022-07-22T02:12:26;100759.00;;;21.96
18713;BMP280;9485;49.386;8.674;2022-07-22T02:17:47;100757.81;;;21.92
18713;BMP280;9485;49.386;8.674;2022-07-22T02:23:08;100746.47;;;21.86
18713;BMP280;9485;49.386;8.674;2022-07-22T02:28:32;100740.53;;;21.84
18713;BMP280;9485;49.386;8.674;2022-07-22T02:33:53;100746.22;;;21.77
18713;BMP280;9485;49.386;8.674;2022-07-22T02:39:13;100758.44;;;21.70
18713;BMP280;9485;49.386;8.674;2022-07-22T02:44:36;100749.59;;;21.60
18713;BMP280;9485;49.386;8.674;2022-07-22T02:49:56;100756.44;;;21.57
18713;BMP280;9485;49.386;8.674;2022-07-22T02:55:18;100750.84;;;21.52
18713;BMP280;9485;49.386;8.674;2022-07-22T03:00:40;100752.91;;;21.44
18713;BMP280;9485;49.386;8.674;2022-07-22T03:06:01;100762.63;;;21.41
18713;BMP280;9485;49.386;8.674;2022-07-22T03:11:36;100763.78;;;21.38
18713;BMP280;9485;49.386;8.674;2022-07-22T03:16:59;100764.13;;;21.34
18713;BMP280;9485;49.386;8.674;2022-07-22T03:22:19;100766.56;;;21.30
18713;BMP280;9485;49.386;8.674;2022-07-22T03:27:40;100755.44;;;21.27
18713;BMP280;9485;49.386;8.674;2022-07-22T03:33:03;100758.13;;;21.25
18713;BMP280;9485;49.386;8.674;2022-07-22T03:38:29;100757.13;;;21.22
18713;BMP280;9485;49.386;8.674;2022-07-22T03:43:50;100761.47;;;21.16
18713;BMP280;9485;49.386;8.674;2022-07-22T03:49:13;100763.91;;;21.12
18713;BMP280;9485;49.386;8.674;2022-07-22T03:54:34;100769.41;;;21.03
18713;BMP280;9485;49.386;8.674;2022-07-22T03:59:54;100769.22;;;21.01
18713;BMP280;9485;49.386;8.674;2022-07-22T04:05:16;100761.47;;;20.96
18713;BMP280;9485;49.386;8.674;2022-07-22T04:10:37;100764.69;;;20.92
18713;BMP280;9485;49.386;8.674;2022-07-22T04:15:58;100760.72;;;20.95
18713;BMP280;9485;49.386;8.674;2022-07-22T04:21:22;100754.63;;;20.99
18713;BMP280;9485;49.386;8.674;2022-07-22T04:26:46;100749.09;;;21.01
18713;BMP280;9485;49.386;8.674;2022-07-22T04:32:06;100746.44;;;21.03
18713;BMP280;9485;49.386;8.674;2022-07-22T04:37:29;100750.28;;;21.05
18713;BMP280;9485;49.386;8.674;2022-07-22T04:42:51;100744.59;;;21.13
18713;BMP280;9485;49.386;8.674;2022-07-22T04:48:12;100727.94;;;21.11
18713;BMP280;9485;49.386;8.674;2022-07-22T04:53:34;100735.16;;;21.25
18713;BMP280;9485;49.386;8.674;2022-07-22T04:58:54;100742.25;;;21.31
18713;BMP280;9485;49.386;8.674;2022-07-22T05:04:20;100744.06;;;21.42
18713;BMP280;9485;49.386;8.674;2022-07-22T05:09:42;100751.06;;;21.54
18713;BMP280;9485;49.386;8.674;2022-07-22T05:15:07;100749.00;;;21.62
18713;BMP280;9485;49.386;8.674;2022-07-22T05:20:28;100745.13;;;21.80
18713;BMP280;9485;49.386;8.674;2022-07-22T05:25:50;100752.66;;;21.90
18713;BMP280;9485;49.386;8.674;2022-07-22T05:31:11;100740.59;;;21.99
18713;BMP280;9485;49.386;8.674;2022-07-22T05:36:33;100758.66;;;22.07
18713;BMP280;9485;49.386;8.674;2022-07-22T05:41:55;100753.72;;;22.15
18713;BMP280;9485;49.386;8.674;2022-07-22T05:47:17;100757.38;;;22.23
18713;BMP280;9485;49.386;8.674;2022-07-22T05:52:38;100755.34;;;22.31
18713;BMP280;9485;49.386;8.674;2022-07-22T05:58:01;100744.06;;;22.40
18713;BMP280;9485;49.386;8.674;2022-07-22T06:03:21;100747.19;;;22.57
18713;BMP280;9485;49.386;8.674;2022-07-22T06:08:42;100761.03;;;22.73
18713;BMP280;9485;49.386;8.674;2022-07-22T06:14:06;100760.84;;;22.86
18713;BMP280;9485;49.386;8.674;2022-07-22T06:19:27;100763.56;;;22.99
18713;BMP280;9485;49.386;8.674;2022-07-22T06:24:48;100754.75;;;23.12
18713;BMP280;9485;49.386;8.674;2022-07-22T06:30:12;100753.22;;;23.26
18713;BMP280;9485;49.386;8.674;2022-07-22T06:35:33;100755.91;;;23.39
18713;BMP280;9485;49.386;8.674;2022-07-22T06:40:54;100749.53;;;23.55
18713;BMP280;9485;49.386;8.674;2022-07-22T06:46:38;100742.03;;;23.75
18713;BMP280;9485;49.386;8.674;2022-07-22T06:52:00;100743.88;;;23.95
18713;BMP280;9485;49.386;8.674;2022-07-22T06:57:21;100735.72;;;24.16
18713;BMP280;9485;49.386;8.674;2022-07-22T07:02:44;100734.47;;;24.41
18713;BMP280;9485;49.386;8.674;2022-07-22T07:08:06;100733.19;;;24.66
18713;BMP280;9485;49.386;8.674;2022-07-22T07:13:26;100727.78;;;24.95
18713;BMP280;9485;49.386;8.674;2022-07-22T07:18:48;100721.19;;;26.18
18713;BMP280;9485;49.386;8.674;2022-07-22T07:24:09;100725.28;;;28.13
18713;BMP280;9485;49.386;8.674;2022-07-22T07:29:30;100726.97;;;29.84
18713;BMP280;9485;49.386;8.674;2022-07-22T07:34:53;100719.69;;;31.48
18713;BMP280;9485;49.386;8.674;2022-07-22T07:40:14;100729.16;;;32.81
18713;BMP280;9485;49.386;8.674;2022-07-22T07:45:36;100721.53;;;33.94
18713;BMP280;9485;49.386;8.674;2022-07-22T07:51:00;100714.19;;;34.95
18713;BMP280;9485;49.386;8.674;2022-07-22T07:56:20;100712.81;;;35.75
18713;BMP280;9485;49.386;8.674;2022-07-22T08:01:41;100710.31;;;36.18
18713;BMP280;9485;49.386;8.674;2022-07-22T08:07:04;100711.53;;;36.46
18713;BMP280;9485;49.386;8.674;2022-07-22T08:12:25;100701.41;;;36.68
18713;BMP280;9485;49.386;8.674;2022-07-22T08:18:10;100686.41;;;36.97
18713;BMP280;9485;49.386;8.674;2022-07-22T08:23:33;100680.34;;;37.49
18713;BMP280;9485;49.386;8.674;2022-07-22T08:28:55;100690.09;;;37.94
18713;BMP280;9485;49.386;8.674;2022-07-22T08:34:16;100689.22;;;38.11
18713;BMP280;9485;49.386;8.674;2022-07-22T08:39:39;100691.56;;;38.36
18713;BMP280;9485;49.386;8.674;2022-07-22T08:45:01;100687.44;;;38.66
18713;BMP280;9485;49.386;8.674;2022-07-22T08:50:23;100684.38;;;38.86
18713;BMP280;9485;49.386;8.674;2022-07-22T08:55:52;100685.34;;;39.17
18713;BMP280;9485;49.386;8.674;2022-07-22T09:01:16;100686.22;;;39.22
18713;BMP280;9485;49.386;8.674;2022-07-22T09:06:48;100673.59;;;39.19
18713;BMP280;9485;49.386;8.674;2022-07-22T09:12:10;100666.44;;;39.03
18713;BMP280;9485;49.386;8.674;2022-07-22T09:17:51;100662.38;;;38.91
18713;BMP280;9485;49.386;8.674;2022-07-22T09:23:21;100659.88;;;38.81
18713;BMP280;9485;49.386;8.674;2022-07-22T09:28:56;100652.75;;;38.90
18713;BMP280;9485;49.386;8.674;2022-07-22T09:34:28;100654.84;;;39.09
18713;BMP280;9485;49.386;8.674;2022-07-22T09:39:52;100644.47;;;39.08
18713;BMP280;9485;49.386;8.674;2022-07-22T09:45:16;100644.91;;;38.99
18713;BMP280;9485;49.386;8.674;2022-07-22T09:50:38;100637.69;;;39.04
18713;BMP280;9485;49.386;8.674;2022-07-22T09:56:34;100624.94;;;38.97
18713;BMP280;9485;49.386;8.674;2022-07-22T10:02:02;100614.78;;;38.79
18713;BMP280;9485;49.386;8.674;2022-07-22T10:07:25;100615.22;;;38.69
18713;BMP280;9485;49.386;8.674;2022-07-22T10:12:50;100607.66;;;38.88
18713;BMP280;9485;49.386;8.674;2022-07-22T10:18:17;100597.22;;;39.08
18713;BMP280;9485;49.386;8.674;2022-07-22T10:24:09;100598.41;;;39.50
18713;BMP280;9485;49.386;8.674;2022-07-22T10:29:42;100582.28;;;39.82
18713;BMP280;9485;49.386;8.674;2022-07-22T10:35:24;100581.97;;;39.97
18713;BMP280;9485;49.386;8.674;2022-07-22T10:40:52;100571.28;;;40.14
18713;BMP280;9485;49.386;8.674;2022-07-22T10:46:13;100569.13;;;40.16
18713;BMP280;9485;49.386;8.674;2022-07-22T10:51:36;100571.09;;;39.79
18713;BMP280;9485;49.386;8.674;2022-07-22T10:56:56;100556.41;;;39.28
18713;BMP280;9485;49.386;8.674;2022-07-22T11:02:18;100539.59;;;38.58
18713;BMP280;9485;49.386;8.674;2022-07-22T11:07:44;100542.91;;;38.22
18713;BMP280;9485;49.386;8.674;2022-07-22T11:13:05;100537.19;;;38.06
18713;BMP280;9485;49.386;8.674;2022-07-22T11:18:44;100514.31;;;38.51
18713;BMP280;9485;49.386;8.674;2022-07-22T11:24:08;100510.94;;;38.86
18713;BMP280;9485;49.386;8.674;2022-07-22T11:29:31;100500.91;;;39.22
18713;BMP280;9485;49.386;8.674;2022-07-22T11:34:53;100499.66;;;39.59
18713;BMP280;9485;49.386;8.674;2022-07-22T11:40:15;100491.50;;;39.87
18713;BMP280;9485;49.386;8.674;2022-07-22T11:45:55;100480.72;;;39.99
18713;BMP280;9485;49.386;8.674;2022-07-22T11:51:15;100465.75;;;39.91
18713;BMP280;9485;49.386;8.674;2022-07-22T11:56:38;100467.34;;;39.96
18713;BMP280;9485;49.386;8.674;2022-07-22T12:01:59;100462.88;;;39.95
18713;BMP280;9485;49.386;8.674;2022-07-22T12:07:20;100468.59;;;40.18
18713;BMP280;9485;49.386;8.674;2022-07-22T12:12:42;100464.94;;;40.53
18713;BMP280;9485;49.386;8.674;2022-07-22T12:18:17;100456.28;;;40.63
18713;BMP280;9485;49.386;8.674;2022-07-22T12:23:50;100450.97;;;40.58
18713;BMP280;9485;49.386;8.674;2022-07-22T12:29:24;100440.28;;;40.41
18713;BMP280;9485;49.386;8.674;2022-07-22T12:34:57;100425.22;;;39.66
18713;BMP280;9485;49.386;8.674;2022-07-22T12:40:22;100416.91;;;39.59
18713;BMP280;9485;49.386;8.674;2022-07-22T12:45:44;100414.03;;;39.92
18713;BMP280;9485;49.386;8.674;2022-07-22T12:51:10;100409.53;;;40.22
18713;BMP280;9485;49.386;8.674;2022-07-22T12:56:31;100405.91;;;40.61
18713;BMP280;9485;49.386;8.674;2022-07-22T13:01:54;100396.16;;;40.92
18713;BMP280;9485;49.386;8.674;2022-07-22T13:07:14;100395.13;;;41.17
18713;BMP280;9485;49.386;8.674;2022-07-22T13:12:35;100398.28;;;41.27
18713;BMP280;9485;49.386;8.674;2022-07-22T13:17:57;100394.28;;;41.54
18713;BMP280;9485;49.386;8.674;2022-07-22T13:23:18;100391.56;;;42.21
18713;BMP280;9485;49.386;8.674;2022-07-22T13:28:40;100383.59;;;43.02
18713;BMP280;9485;49.386;8.674;2022-07-22T13:34:01;100391.41;;;43.41
18713;BMP280;9485;49.386;8.674;2022-07-22T13:39:23;100380.72;;;43.10
18713;BMP280;9485;49.386;8.674;2022-07-22T13:44:44;100372.63;;;43.18
18713;BMP280;9485;49.386;8.674;2022-07-22T13:50:07;100361.03;;;43.50
18713;BMP280;9485;49.386;8.674;2022-07-22T13:55:28;100355.66;;;43.35
18713;BMP280;9485;49.386;8.674;2022-07-22T14:00:50;100345.28;;;43.34
18713;BMP280;9485;49.386;8.674;2022-07-22T14:06:11;100337.22;;;43.52
18713;BMP280;9485;49.386;8.674;2022-07-22T14:11:32;100323.75;;;43.37
18713;BMP280;9485;49.386;8.674;2022-07-22T14:16:53;100331.81;;;43.23
18713;BMP280;9485;49.386;8.674;2022-07-22T14:22:15;100318.25;;;43.04
18713;BMP280;9485;49.386;8.674;2022-07-22T14:27:35;100319.38;;;42.67
18713;BMP280;9485;49.386;8.674;2022-07-22T14:32:56;100318.38;;;42.39
18713;BMP280;9485;49.386;8.674;2022-07-22T14:38:19;100315.59;;;41.94
18713;BMP280;9485;49.386;8.674;2022-07-22T14:43:39;100324.34;;;41.35
18713;BMP280;9485;49.386;8.674;2022-07-22T14:49:00;100322.97;;;40.59
18713;BMP280;9485;49.386;8.674;2022-07-22T14:54:22;100309.63;;;39.86
18713;BMP280;9485;49.386;8.674;2022-07-22T14:59:42;100317.13;;;39.26
18713;BMP280;9485;49.386;8.674;2022-07-22T15:05:04;100314.66;;;38.60
18713;BMP280;9485;49.386;8.674;2022-07-22T15:10:26;100315.25;;;38.04
18713;BMP280;9485;49.386;8.674;2022-07-22T15:15:47;100312.00;;;37.45
18713;BMP280;9485;49.386;8.674;2022-07-22T15:21:07;100299.50;;;37.02
18713;BMP280;9485;49.386;8.674;2022-07-22T15:26:30;100292.34;;;36.64
18713;BMP280;9485;49.386;8.674;2022-07-22T15:31:50;100288.72;;;36.25
18713;BMP280;9485;49.386;8.674;2022-07-22T15:37:11;100277.50;;;36.00
18713;BMP280;9485;49.386;8.674;2022-07-22T15:42:33;100275.16;;;35.77
18713;BMP280;9485;49.386;8.674;2022-07-22T15:47:54;100258.34;;;35.60
18713;BMP280;9485;49.386;8.674;2022-07-22T15:53:14;100255.09;;;35.52
18713;BMP280;9485;49.386;8.674;2022-07-22T15:58:36;100265.00;;;35.43
18713;BMP280;9485;49.386;8.674;2022-07-22T16:04:14;100270.41;;;35.31
18713;BMP280;9485;49.386;8.674;2022-07-22T16:09:35;100256.09;;;35.22
18713;BMP280;9485;49.386;8.674;2022-07-22T16:14:56;100255.34;;;35.22
18713;BMP280;9485;49.386;8.674;2022-07-22T16:20:17;100262.06;;;35.24
18713;BMP280;9485;49.386;8.674;2022-07-22T16:25:40;100252.56;;;35.25
18713;BMP280;9485;49.386;8.674;2022-07-22T16:31:02;100249.06;;;35.12
18713;BMP280;9485;49.386;8.674;2022-07-22T16:36:24;100237.47;;;34.98
18713;BMP280;9485;49.386;8.674;2022-07-22T16:41:45;100230.44;;;34.88
18713;BMP280;9485;49.386;8.674;2022-07-22T16:47:07;100226.22;;;34.73
18713;BMP280;9485;49.386;8.674;2022-07-22T16:52:27;100232.75;;;34.72
18713;BMP280;9485;49.386;8.674;2022-07-22T16:57:48;100220.34;;;34.73
18713;BMP280;9485;49.386;8.674;2022-07-22T17:03:10;100227.03;;;34.76
18713;BMP280;9485;49.386;8.674;2022-07-22T17:08:30;100227.72;;;34.74
18713;BMP280;9485;49.386;8.674;2022-07-22T17:13:51;100240.72;;;34.69
18713;BMP280;9485;49.386;8.674;2022-07-22T17:19:13;100240.03;;;34.71
18713;BMP280;9485;49.386;8.674;2022-07-22T17:24:34;100241.56;;;34.72
18713;BMP280;9485;49.386;8.674;2022-07-22T17:29:54;100255.44;;;34.71
18713;BMP280;9485;49.386;8.674;2022-07-22T17:35:16;100250.25;;;34.70
18713;BMP280;9485;49.386;8.674;2022-07-22T17:40:37;100248.16;;;34.55
18713;BMP280;9485;49.386;8.674;2022-07-22T17:45:58;100260.91;;;34.29
18713;BMP280;9485;49.386;8.674;2022-07-22T17:51:20;100246.59;;;34.04
18713;BMP280;9485;49.386;8.674;2022-07-22T17:56:40;100265.28;;;33.79
18713;BMP280;9485;49.386;8.674;2022-07-22T18:02:01;100275.84;;;33.56
18713;BMP280;9485;49.386;8.674;2022-07-22T18:07:23;100261.78;;;33.37
18713;BMP280;9485;49.386;8.674;2022-07-22T18:12:44;100274.16;;;33.20
18713;BMP280;9485;49.386;8.674;2022-07-22T18:18:08;100265.88;;;33.01
18713;BMP280;9485;49.386;8.674;2022-07-22T18:23:29;100244.63;;;32.85
18713;BMP280;9485;49.386;8.674;2022-07-22T18:28:50;100210.25;;;32.70
18713;BMP280;9485;49.386;8.674;2022-07-22T18:34:11;100215.28;;;32.54
18713;BMP280;9485;49.386;8.674;2022-07-22T18:39:35;100206.38;;;32.37
18713;BMP280;9485;49.386;8.674;2022-07-22T18:44:55;100222.22;;;32.18
18713;BMP280;9485;49.386;8.674;2022-07-22T18:50:16;100235.56;;;31.95
18713;BMP280;9485;49.386;8.674;2022-07-22T18:55:38;100232.88;;;31.72
18713;BMP280;9485;49.386;8.674;2022-07-22T19:00:59;100245.56;;;31.51
18713;BMP280;9485;49.386;8.674;2022-07-22T19:06:19;100246.66;;;31.31
18713;BMP280;9485;49.386;8.674;2022-07-22T19:11:42;100249.09;;;31.10
18713;BMP280;9485;49.386;8.674;2022-07-22T19:17:02;100251.38;;;30.86
18713;BMP280;9485;49.386;8.674;2022-07-22T19:22:23;100241.59;;;30.68
18713;BMP280;9485;49.386;8.674;2022-07-22T19:27:44;100240.31;;;30.47
18713;BMP280;9485;49.386;8.674;2022-07-22T19:33:05;100243.63;;;30.30
18713;BMP280;9485;49.386;8.674;2022-07-22T19:38:26;100270.00;;;30.20
18713;BMP280;9485;49.386;8.674;2022-07-22T19:43:48;100262.94;;;30.12
18713;BMP280;9485;49.386;8.674;2022-07-22T19:49:09;100259.28;;;30.00
18713;BMP280;9485;49.386;8.674;2022-07-22T19:54:29;100268.03;;;29.88
18713;BMP280;9485;49.386;8.674;2022-07-22T19:59:51;100271.34;;;29.83
18713;BMP280;9485;49.386;8.674;2022-07-22T20:05:12;100282.34;;;29.73
18713;BMP280;9485;49.386;8.674;2022-07-22T20:10:33;100289.06;;;29.64
18713;BMP280;9485;49.386;8.674;2022-07-22T20:15:55;100288.66;;;29.58
18713;BMP280;9485;49.386;8.674;2022-07-22T20:21:17;100266.41;;;29.51
18713;BMP280;9485;49.386;8.674;2022-07-22T20:26:37;100257.81;;;29.42
18713;BMP280;9485;49.386;8.674;2022-07-22T20:31:59;100238.22;;;29.42
18713;BMP280;9485;49.386;8.674;2022-07-22T20:37:20;100235.81;;;29.39
18713;BMP280;9485;49.386;8.674;2022-07-22T20:42:41;100249.19;;;29.32
18713;BMP280;9485;49.386;8.674;2022-07-22T20:48:04;100253.09;;;29.25
18713;BMP280;9485;49.386;8.674;2022-07-22T20:53:25;100251.56;;;29.13
18713;BMP280;9485;49.386;8.674;2022-07-22T20:58:45;100269.66;;;29.11
18713;BMP280;9485;49.386;8.674;2022-07-22T21:04:07;100266.34;;;29.05
18713;BMP280;9485;49.386;8.674;2022-07-22T21:09:28;100249.16;;;28.98
18713;BMP280;9485;49.386;8.674;2022-07-22T21:14:49;100247.25;;;28.91
18713;BMP280;9485;49.386;8.674;2022-07-22T21:20:11;100235.34;;;28.87
18713;BMP280;9485;49.386;8.674;2022-07-22T21:25:33;100245.06;;;28.80
18713;BMP280;9485;49.386;8.674;2022-07-22T21:30:53;100244.78;;;28.76
18713;BMP280;9485;49.386;8.674;2022-07-22T21:36:15;100251.84;;;28.73
18713;BMP280;9485;49.386;8.674;2022-07-22T21:41:36;100250.94;;;28.71
18713;BMP280;9485;49.386;8.674;2022-07-22T21:46:57;100253.72;;;28.69
18713;BMP280;9485;49.386;8.674;2022-07-22T21:52:19;100249.94;;;28.66
18713;BMP280;9485;49.386;8.674;2022-07-22T21:57:40;100253.97;;;28.61
18713;BMP280;9485;49.386;8.674;2022-07-22T22:03:00;100249.13;;;28.54
18713;BMP280;9485;49.386;8.674;2022-07-22T22:08:22;100245.53;;;28.44
18713;BMP280;9485;49.386;8.674;2022-07-22T22:13:42;100243.38;;;28.33
18713;BMP280;9485;49.386;8.674;2022-07-22T22:19:03;100235.78;;;28.28
18713;BMP280;9485;49.386;8.674;2022-07-22T22:24:25;100241.16;;;28.22
18713;BMP280;9485;49.386;8.674;2022-07-22T22:29:46;100248.06;;;28.17
18713;BMP280;9485;49.386;8.674;2022-07-22T22:35:08;100253.31;;;28.10
18713;BMP280;9485;49.386;8.674;2022-07-22T22:40:30;100249.72;;;28.00
18713;BMP280;9485;49.386;8.674;2022-07-22T22:45:50;100262.31;;;27.93
18713;BMP280;9485;49.386;8.674;2022-07-22T22:51:11;100267.69;;;27.87
18713;BMP280;9485;49.386;8.674;2022-07-22T22:56:33;100263.75;;;27.82
18713;BMP280;9485;49.386;8.674;2022-07-22T23:01:54;100274.94;;;27.76
18713;BMP280;9485;49.386;8.674;2022-07-22T23:07:14;100269.47;;;27.71
18713;BMP280;9485;49.386;8.674;2022-07-22T23:12:36;100263.09;;;27.63
18713;BMP280;9485;49.386;8.674;2022-07-22T23:17:57;100258.22;;;27.56
18713;BMP280;9485;49.386;8.674;2022-07-22T23:23:20;100272.78;;;27.46
18713;BMP280;9485;49.386;8.674;2022-07-22T23:28:42;100283.66;;;27.36
18713;BMP280;9485;49.386;8.674;2022-07-22T23:34:02;100260.94;;;27.33
18713;BMP280;9485;49.386;8.674;2022-07-22T23:39:23;100277.28;;;27.29
18713;BMP280;9485;49.386;8.674;2022-07-22T23:44:45;100248.75;;;27.25
18713;BMP280;9485;49.386;8.674;2022-07-22T23:50:06;100237.63;;;27.22
18713;BMP280;9485;49.386;8.674;2022-07-22T23:55:27;100235.22;;;27.18
